Time;durP1;ratioP1;P1;durP2;ratioP2;P2;SDS_P1;SDS_P2;PMS_P1;PMS_P2;Temp;Humidity;BMP_temperature;BMP_pressure;BME280_temperature;BME280_humidity;BME280_pressure;Samples;Min_cycle;Max_cycle;Signal;HPM_P1;HPM_P2
2022/05/03 00:00:16;;;;;;;20.98;17.45;;;13.90;99.90;;;;;;5086730;28;20672;-73
2022/05/03 00:02:57;;;;;;;26.15;18.10;;;13.90;99.90;;;;;;5084233;28;20584;-73
2022/05/03 00:05:32;;;;;;;18.80;16.80;;;13.90;99.90;;;;;;5093277;28;20209;-73
2022/05/03 00:08:05;;;;;;;17.83;14.55;;;13.90;99.90;;;;;;5083727;28;20214;-73
2022/05/03 00:10:45;;;;;;;18.38;15.95;;;13.90;99.90;;;;;;5093317;28;20274;-75
2022/05/03 00:13:17;;;;;;;16.40;13.95;;;13.80;99.90;;;;;;5089062;28;20209;-72
2022/05/03 00:15:45;;;;;;;17.60;13.88;;;14.00;99.90;;;;;;5088782;28;20209;-76
2022/05/03 00:18:13;;;;;;;15.85;14.20;;;14.00;99.90;;;;;;5081100;28;20681;-73
2022/05/03 00:20:41;;;;;;;17.90;14.73;;;14.00;99.90;;;;;;5076723;28;20225;-73
2022/05/03 00:23:10;;;;;;;19.25;15.45;;;14.00;99.90;;;;;;5082382;28;20608;-72
2022/05/03 00:25:37;;;;;;;21.17;14.85;;;14.00;99.90;;;;;;5084596;28;20209;-73
2022/05/03 00:28:05;;;;;;;19.48;15.35;;;14.00;99.90;;;;;;5075561;28;20554;-72
2022/05/03 00:30:33;;;;;;;18.50;15.85;;;14.00;99.90;;;;;;5080417;28;20213;-73
2022/05/03 00:33:02;;;;;;;21.33;15.02;;;14.00;99.90;;;;;;5080526;28;20681;-73
2022/05/03 00:35:29;;;;;;;20.85;15.65;;;13.90;99.90;;;;;;5076050;28;20201;-72
2022/05/03 00:37:56;;;;;;;17.73;15.90;;;14.00;99.90;;;;;;5085284;28;20217;-72
2022/05/03 00:40:26;;;;;;;17.98;15.30;;;13.90;99.90;;;;;;5075200;28;20213;-72
2022/05/03 00:43:02;;;;;;;18.17;15.30;;;13.90;99.90;;;;;;5092897;28;20221;-72
2022/05/03 00:45:40;;;;;;;18.15;15.60;;;13.80;99.90;;;;;;5081025;28;20209;-73
2022/05/03 00:48:20;;;;;;;16.65;14.95;;;13.80;99.90;;;;;;5087580;28;20201;-72
2022/05/03 00:50:57;;;;;;;22.13;17.23;;;13.80;99.90;;;;;;5073629;28;20202;-72
2022/05/03 00:53:28;;;;;;;20.35;16.67;;;13.80;99.90;;;;;;5072906;28;20202;-72
2022/05/03 00:56:24;;;;;;;23.85;17.80;;;13.70;99.90;;;;;;5068163;28;20209;-72
2022/05/03 00:59:07;;;;;;;16.33;14.60;;;13.70;99.90;;;;;;5084773;28;20205;-73
2022/05/03 01:01:46;;;;;;;20.20;15.88;;;13.70;99.90;;;;;;5091620;28;20205;-72
2022/05/03 01:04:25;;;;;;;20.17;15.65;;;13.70;99.90;;;;;;5077149;28;20226;-73
2022/05/03 01:07:03;;;;;;;17.40;15.57;;;13.80;99.90;;;;;;5089150;28;20194;-73
2022/05/03 01:09:39;;;;;;;21.70;17.75;;;13.80;99.90;;;;;;5072507;28;20708;-73
2022/05/03 01:12:24;;;;;;;19.75;16.55;;;13.70;99.90;;;;;;5073498;28;20233;-72
2022/05/03 01:15:09;;;;;;;17.27;15.10;;;13.70;99.90;;;;;;5074662;28;20713;-73
2022/05/03 01:17:44;;;;;;;21.08;16.25;;;13.60;99.90;;;;;;5090458;28;20217;-72
2022/05/03 01:20:15;;;;;;;21.13;14.95;;;13.70;99.90;;;;;;5073307;28;20289;-73
2022/05/03 01:23:21;;;;;;;22.52;18.08;;;13.60;99.90;;;;;;5080277;28;20310;-73
2022/05/03 01:26:01;;;;;;;20.50;16.00;;;13.50;99.90;;;;;;5076386;28;20208;-73
2022/05/03 01:28:35;;;;;;;19.83;16.90;;;13.60;99.90;;;;;;5073768;28;20198;-73
2022/05/03 01:31:10;;;;;;;18.25;16.33;;;13.60;99.90;;;;;;5080258;28;20197;-73
2022/05/03 01:33:40;;;;;;;19.30;14.98;;;13.50;99.90;;;;;;5076470;28;20660;-73
2022/05/03 01:36:09;;;;;;;20.83;15.05;;;13.50;99.90;;;;;;5082420;28;20212;-73
2022/05/03 01:38:51;;;;;;;22.85;16.45;;;13.40;99.90;;;;;;5067742;28;20201;-73
2022/05/03 01:41:29;;;;;;;21.23;16.80;;;13.40;99.90;;;;;;5082156;28;20217;-72
2022/05/03 01:44:27;;;;;;;21.13;17.65;;;13.40;99.90;;;;;;5082351;28;20229;-72
2022/05/03 01:47:00;;;;;;;17.70;15.60;;;13.50;99.90;;;;;;5056610;28;20640;-73
2022/05/03 01:52:45;;;;;;;19.15;15.48;;;13.40;99.90;;;;;;5083197;28;20203;-72
2022/05/03 01:55:48;;;;;;;16.02;13.43;;;13.40;99.90;;;;;;5064750;28;20199;-73
2022/05/03 01:58:26;;;;;;;20.38;15.43;;;13.40;99.90;;;;;;5079471;28;20217;-73
2022/05/03 02:01:06;;;;;;;17.35;15.38;;;13.30;99.90;;;;;;5080837;28;20204;-73
2022/05/03 02:03:45;;;;;;;16.27;14.18;;;13.20;99.90;;;;;;5090218;28;20309;-72
2022/05/03 02:06:14;;;;;;;20.80;16.35;;;13.20;99.90;;;;;;5066682;28;20259;-73
2022/05/03 02:08:53;;;;;;;18.58;16.52;;;13.10;99.90;;;;;;5075486;28;20206;-73
2022/05/03 02:11:51;;;;;;;18.52;16.00;;;13.20;99.90;;;;;;5081864;28;20232;-73
2022/05/03 02:17:51;;;;;;;18.90;15.00;;;13.20;99.90;;;;;;5033374;28;20200;-73
2022/05/03 02:20:41;;;;;;;17.75;14.32;;;13.20;99.90;;;;;;5070599;28;20211;-73
2022/05/03 02:23:19;;;;;;;18.08;15.70;;;13.10;99.90;;;;;;5078817;28;20280;-73
2022/05/03 02:26:05;;;;;;;20.13;14.73;;;13.10;99.90;;;;;;5078953;28;20205;-73
2022/05/03 02:28:39;;;;;;;17.60;14.63;;;13.20;99.90;;;;;;5074100;28;20288;-73
2022/05/03 02:31:13;;;;;;;17.58;15.68;;;13.30;99.90;;;;;;5089707;28;20620;-73
2022/05/03 02:33:48;;;;;;;18.42;14.75;;;13.40;99.90;;;;;;5073940;28;20202;-73
2022/05/03 02:36:18;;;;;;;19.48;15.35;;;13.30;99.90;;;;;;5089654;28;20628;-72
2022/05/03 02:38:53;;;;;;;19.20;15.38;;;13.20;99.90;;;;;;5089652;28;20209;-74
2022/05/03 02:41:24;;;;;;;19.05;17.02;;;13.20;99.90;;;;;;5082137;28;20209;-73
2022/05/03 02:43:52;;;;;;;22.77;15.60;;;13.30;99.90;;;;;;5089887;28;20657;-73
2022/05/03 02:46:49;;;;;;;17.73;15.93;;;13.20;99.90;;;;;;5081541;28;20206;-73
2022/05/03 02:49:20;;;;;;;17.77;15.80;;;13.20;99.90;;;;;;5065318;28;20220;-73
2022/05/03 02:51:57;;;;;;;18.13;15.25;;;13.20;99.90;;;;;;5079220;28;20738;-73
2022/05/03 02:54:36;;;;;;;16.88;15.07;;;13.20;99.90;;;;;;5089247;28;20227;-73
2022/05/03 02:57:14;;;;;;;18.00;14.35;;;13.10;99.90;;;;;;5072952;28;20198;-72
2022/05/03 03:02:37;;;;;;;20.05;15.38;;;13.10;99.90;;;;;;5052548;28;20209;-73
2022/05/03 03:05:07;;;;;;;17.60;15.00;;;13.10;99.90;;;;;;5072443;28;20654;-73
2022/05/03 03:07:44;;;;;;;20.20;14.63;;;13.10;99.90;;;;;;5081571;28;20198;-72
2022/05/03 03:10:18;;;;;;;18.02;15.88;;;12.90;99.90;;;;;;5071585;28;20616;-72
2022/05/03 03:12:56;;;;;;;19.42;15.15;;;13.00;99.90;;;;;;5078565;28;20202;-73
2022/05/03 03:15:29;;;;;;;18.52;15.07;;;12.80;99.90;;;;;;5086846;28;20284;-72
2022/05/03 03:17:57;;;;;;;18.10;14.82;;;12.70;99.90;;;;;;5085147;28;20719;-73
2022/05/03 03:20:25;;;;;;;21.17;17.05;;;12.70;99.90;;;;;;5081300;28;20212;-72
2022/05/03 03:22:55;;;;;;;20.42;16.73;;;12.70;99.90;;;;;;5084881;28;20731;-72
2022/05/03 03:25:23;;;;;;;21.83;16.67;;;12.70;99.90;;;;;;5078592;28;20289;-72
2022/05/03 03:27:52;;;;;;;19.23;16.33;;;12.60;99.90;;;;;;5082034;28;20620;-72
2022/05/03 03:30:20;;;;;;;20.95;17.65;;;12.70;99.90;;;;;;5077207;28;20209;-73
2022/05/03 03:32:49;;;;;;;22.02;17.25;;;12.70;99.90;;;;;;5070000;28;20578;-74
2022/05/03 03:35:17;;;;;;;22.00;16.98;;;12.60;99.90;;;;;;5069847;28;20620;-74
2022/05/03 03:37:46;;;;;;;22.00;17.02;;;12.60;99.90;;;;;;5079557;28;20260;-73
2022/05/03 03:40:17;;;;;;;22.52;16.25;;;12.60;99.90;;;;;;5075397;28;20202;-72
2022/05/03 03:42:45;;;;;;;20.15;16.60;;;12.50;99.90;;;;;;5079158;28;20738;-72
2022/05/03 03:45:13;;;;;;;22.70;16.55;;;12.50;99.90;;;;;;5076261;28;20225;-72
2022/05/03 03:47:42;;;;;;;19.73;16.92;;;12.50;99.90;;;;;;5070836;28;20198;-72
2022/05/03 03:50:10;;;;;;;20.20;17.20;;;12.50;99.90;;;;;;5070188;28;20267;-72
2022/05/03 03:52:41;;;;;;;16.65;14.77;;;12.60;99.90;;;;;;5070301;28;20582;-73
2022/05/03 03:55:09;;;;;;;21.25;16.88;;;12.60;99.90;;;;;;5069839;28;20739;-73
2022/05/03 03:57:38;;;;;;;21.10;15.93;;;12.70;99.90;;;;;;5070290;28;20198;-72
2022/05/03 04:00:07;;;;;;;23.00;15.93;;;12.70;99.90;;;;;;5069508;28;20615;-73
2022/05/03 04:02:35;;;;;;;20.02;16.15;;;12.50;99.90;;;;;;5070524;28;20198;-73
2022/05/03 04:05:03;;;;;;;18.73;14.88;;;12.50;99.90;;;;;;5069964;28;20234;-73
2022/05/03 04:07:30;;;;;;;26.33;15.35;;;12.50;99.90;;;;;;5074026;28;20210;-72
2022/05/03 04:09:57;;;;;;;21.45;16.10;;;12.50;99.90;;;;;;5073738;28;20210;-73
2022/05/03 04:12:25;;;;;;;19.17;16.55;;;12.40;99.90;;;;;;5074083;28;20723;-73
2022/05/03 04:14:53;;;;;;;23.20;17.38;;;12.50;99.90;;;;;;5074145;28;20206;-72
2022/05/03 04:17:20;;;;;;;19.40;16.70;;;12.50;99.90;;;;;;5073635;28;20202;-72
2022/05/03 04:19:48;;;;;;;22.75;17.30;;;12.50;99.90;;;;;;5073757;28;20681;-72
2022/05/03 04:22:25;;;;;;;22.65;16.52;;;12.50;99.90;;;;;;5073261;28;20206;-73
2022/05/03 04:24:52;;;;;;;22.05;15.88;;;12.60;99.90;;;;;;5074226;28;20271;-72
2022/05/03 04:27:20;;;;;;;21.25;17.00;;;12.60;99.90;;;;;;5073171;28;20313;-74
2022/05/03 04:29:47;;;;;;;23.33;17.63;;;12.50;99.90;;;;;;5073536;28;20202;-74
2022/05/03 04:32:16;;;;;;;21.20;18.05;;;12.50;99.90;;;;;;5072925;28;20202;-74
2022/05/03 04:34:43;;;;;;;19.30;15.73;;;12.60;99.90;;;;;;5073362;28;20206;-73
2022/05/03 04:37:10;;;;;;;21.05;16.52;;;12.60;99.90;;;;;;5072911;28;20260;-74
2022/05/03 04:39:37;;;;;;;19.25;16.13;;;12.70;99.90;;;;;;5073320;28;20202;-72
2022/05/03 04:42:05;;;;;;;21.00;16.33;;;12.60;99.90;;;;;;5073154;28;20206;-73
2022/05/03 04:44:32;;;;;;;20.15;15.23;;;12.50;99.90;;;;;;5073061;28;20319;-73
2022/05/03 04:46:59;;;;;;;19.92;15.60;;;12.40;99.90;;;;;;5072901;28;20198;-71
2022/05/03 04:49:27;;;;;;;21.42;15.88;;;12.40;99.90;;;;;;5074875;28;20210;-72
2022/05/03 04:51:55;;;;;;;18.67;16.10;;;12.30;99.90;;;;;;5058991;28;20206;-74
2022/05/03 04:54:23;;;;;;;20.42;15.35;;;12.40;99.90;;;;;;5070672;28;20240;-73
2022/05/03 04:56:52;;;;;;;16.80;14.52;;;12.40;99.90;;;;;;5066213;28;20209;-71
2022/05/03 04:59:19;;;;;;;18.58;15.82;;;12.40;99.90;;;;;;5058816;28;20206;-72
2022/05/03 05:01:46;;;;;;;22.02;15.70;;;12.40;99.90;;;;;;5072464;28;20827;-71
2022/05/03 05:04:13;;;;;;;18.95;15.63;;;12.40;99.90;;;;;;5072064;28;20296;-72
2022/05/03 05:06:42;;;;;;;21.02;17.60;;;12.50;99.90;;;;;;5070124;28;20210;-71
2022/05/03 05:09:09;;;;;;;19.48;15.70;;;12.60;99.90;;;;;;5071197;28;20669;-71
2022/05/03 05:11:36;;;;;;;19.55;15.52;;;12.60;99.90;;;;;;5072391;28;20202;-71
2022/05/03 05:14:03;;;;;;;19.92;16.45;;;12.50;99.90;;;;;;5071983;28;20202;-72
2022/05/03 05:16:30;;;;;;;22.73;17.52;;;12.60;99.90;;;;;;5072178;28;20214;-73
2022/05/03 05:18:57;;;;;;;21.73;16.52;;;12.70;99.90;;;;;;5071833;28;20202;-73
2022/05/03 05:21:24;;;;;;;21.50;16.65;;;12.80;99.90;;;;;;5072551;28;20665;-72
2022/05/03 05:23:52;;;;;;;18.88;16.40;;;12.70;99.90;;;;;;5071892;28;20709;-73
2022/05/03 05:26:19;;;;;;;19.90;17.27;;;12.70;99.90;;;;;;5071445;28;20210;-73
2022/05/03 05:28:46;;;;;;;26.80;18.50;;;12.80;99.90;;;;;;5072044;28;20268;-73
2022/05/03 05:31:13;;;;;;;18.33;15.73;;;12.90;99.90;;;;;;5071883;28;20198;-73
2022/05/03 05:33:40;;;;;;;21.70;17.50;;;13.00;99.90;;;;;;5072406;28;20198;-72
2022/05/03 05:36:07;;;;;;;19.63;16.13;;;12.90;99.90;;;;;;5071864;28;20256;-72
2022/05/03 05:38:34;;;;;;;21.05;17.10;;;13.00;99.90;;;;;;5072092;28;20558;-73
2022/05/03 05:41:13;;;;;;;18.25;16.02;;;13.10;99.90;;;;;;5071776;28;20210;-73
2022/05/03 05:43:41;;;;;;;20.67;17.40;;;13.20;99.90;;;;;;5072111;28;20284;-73
2022/05/03 05:46:08;;;;;;;23.95;17.63;;;13.20;99.90;;;;;;5071806;28;20206;-73
2022/05/03 05:48:35;;;;;;;19.40;16.08;;;13.20;99.90;;;;;;5072018;28;20233;-73
2022/05/03 05:51:02;;;;;;;21.23;15.57;;;13.30;99.90;;;;;;5071488;28;20256;-73
2022/05/03 05:53:34;;;;;;;20.50;16.70;;;13.30;99.90;;;;;;5072157;28;20202;-73
2022/05/03 05:56:04;;;;;;;20.15;16.00;;;13.40;99.90;;;;;;5071252;28;20236;-73
2022/05/03 05:58:31;;;;;;;19.70;15.55;;;13.50;99.90;;;;;;5072025;28;20214;-73
2022/05/03 06:00:58;;;;;;;21.02;16.80;;;13.30;99.90;;;;;;5071340;28;20206;-72
2022/05/03 06:03:28;;;;;;;22.70;16.50;;;13.50;99.90;;;;;;5072292;28;20202;-72
2022/05/03 06:05:56;;;;;;;18.52;14.93;;;13.70;99.90;;;;;;5071906;28;20233;-73
2022/05/03 06:08:23;;;;;;;19.40;14.32;;;13.70;99.90;;;;;;5071980;28;20669;-73
2022/05/03 06:10:50;;;;;;;18.02;15.23;;;13.90;99.90;;;;;;5071570;28;20234;-73
2022/05/03 06:13:19;;;;;;;21.25;14.32;;;14.00;99.90;;;;;;5071071;28;20206;-72
2022/05/03 06:15:48;;;;;;;17.25;14.45;;;14.00;99.90;;;;;;5071500;28;20218;-72
2022/05/03 06:18:15;;;;;;;15.95;14.25;;;14.10;99.90;;;;;;5071419;28;20210;-73
2022/05/03 06:20:42;;;;;;;18.08;14.98;;;14.10;99.90;;;;;;5071568;28;20213;-72
2022/05/03 06:23:10;;;;;;;17.60;13.90;;;14.20;99.90;;;;;;5071103;28;20210;-72
2022/05/03 06:25:37;;;;;;;15.73;13.77;;;14.10;99.90;;;;;;5070885;28;20234;-72
2022/05/03 06:28:04;;;;;;;16.88;13.30;;;14.20;99.90;;;;;;5070735;28;20214;-72
2022/05/03 06:30:33;;;;;;;16.58;13.45;;;14.20;99.90;;;;;;5071454;28;20256;-72
2022/05/03 06:33:00;;;;;;;19.75;15.27;;;14.20;99.90;;;;;;5070896;28;20209;-74
2022/05/03 06:35:28;;;;;;;18.38;14.65;;;14.20;99.90;;;;;;5071323;28;20244;-76
2022/05/03 06:37:55;;;;;;;18.48;14.23;;;14.20;99.90;;;;;;5071323;28;20210;-73
2022/05/03 06:40:22;;;;;;;22.23;14.35;;;14.20;99.90;;;;;;5068165;28;20259;-72
2022/05/03 06:42:49;;;;;;;18.23;14.68;;;14.40;99.90;;;;;;5060549;28;20214;-73
2022/05/03 06:45:16;;;;;;;15.18;13.15;;;14.50;99.90;;;;;;5070600;28;20229;-73
2022/05/03 06:47:44;;;;;;;14.27;12.88;;;14.50;99.90;;;;;;5071173;28;20252;-73
2022/05/03 06:50:11;;;;;;;17.73;13.85;;;14.60;99.90;;;;;;5070589;28;20252;-74
2022/05/03 06:52:42;;;;;;;16.80;12.48;;;14.40;99.90;;;;;;5070714;28;20201;-74
2022/05/03 06:55:25;;;;;;;16.30;13.68;;;14.30;99.90;;;;;;5071051;28;20206;-74
2022/05/03 06:57:52;;;;;;;15.52;13.35;;;14.50;99.90;;;;;;5071383;28;20267;-74
2022/05/03 07:00:19;;;;;;;15.45;12.68;;;14.60;99.90;;;;;;5070481;28;20661;-74
2022/05/03 07:02:48;;;;;;;13.70;12.20;;;14.60;99.90;;;;;;5070903;28;21006;-74
2022/05/03 07:05:15;;;;;;;13.55;12.07;;;14.60;99.90;;;;;;5070417;28;20763;-74
2022/05/03 07:07:42;;;;;;;15.48;11.38;;;14.50;99.90;;;;;;5070633;28;20252;-74
2022/05/03 07:10:10;;;;;;;12.55;11.30;;;14.60;99.90;;;;;;5070440;28;20206;-77
2022/05/03 07:12:36;;;;;;;14.82;12.40;;;14.60;99.90;;;;;;5066251;28;20275;-75
2022/05/03 07:15:05;;;;;;;14.07;12.48;;;14.60;99.90;;;;;;5050042;28;20684;-77
2022/05/03 07:23:03;;;;;;;14.80;10.82;;;15.10;99.90;;;;;;5050219;28;20676;-76
2022/05/03 07:25:31;;;;;;;13.60;11.95;;;15.20;99.90;;;;;;5050487;28;20238;-75
2022/05/03 07:27:58;;;;;;;15.48;11.75;;;15.20;99.90;;;;;;5050353;28;20199;-75
2022/05/03 07:30:25;;;;;;;12.82;11.52;;;15.30;99.90;;;;;;5056836;28;20255;-78
2022/05/03 07:32:52;;;;;;;13.18;11.20;;;15.30;99.90;;;;;;5070939;28;20627;-78
2022/05/03 07:35:21;;;;;;;13.05;10.80;;;15.30;99.90;;;;;;5070430;28;20236;-77
2022/05/03 07:37:48;;;;;;;12.23;11.00;;;15.60;99.90;;;;;;5070162;28;20210;-76
2022/05/03 07:40:15;;;;;;;12.55;10.85;;;15.60;99.90;;;;;;5064446;28;20219;-76
2022/05/03 07:42:42;;;;;;;14.30;11.10;;;15.60;99.90;;;;;;5062488;28;20632;-77
2022/05/03 07:45:10;;;;;;;13.63;11.57;;;15.70;99.90;;;;;;5071626;28;20226;-76
2022/05/03 07:47:37;;;;;;;14.02;10.57;;;15.90;99.90;;;;;;5072094;28;20260;-77
2022/05/03 07:50:06;;;;;;;14.05;11.38;;;16.00;99.90;;;;;;5073275;28;20202;-77
2022/05/03 07:52:36;;;;;;;14.30;10.40;;;16.10;99.90;;;;;;5073921;28;20267;-77
2022/05/03 07:55:05;;;;;;;12.50;11.15;;;15.90;99.90;;;;;;5073895;28;20210;-77
2022/05/03 07:57:32;;;;;;;12.35;11.05;;;15.70;99.90;;;;;;5056531;28;20301;-81
2022/05/03 07:59:59;;;;;;;16.05;11.95;;;15.90;99.90;;;;;;5054555;28;20207;-73
2022/05/03 08:02:27;;;;;;;12.07;10.95;;;16.20;99.90;;;;;;5064447;28;20252;-73
2022/05/03 08:04:55;;;;;;;14.98;11.88;;;16.30;99.90;;;;;;5070665;28;20261;-80
2022/05/03 08:07:22;;;;;;;12.02;10.18;;;16.40;99.90;;;;;;5068889;28;20198;-76
2022/05/03 08:09:52;;;;;;;11.52;10.10;;;16.40;99.90;;;;;;5067918;28;20207;-80
2022/05/03 08:12:19;;;;;;;13.32;10.85;;;16.50;99.90;;;;;;5069449;28;20287;-85
2022/05/03 08:14:46;;;;;;;12.32;9.23;;;16.50;99.90;;;;;;5065866;28;20584;-82
2022/05/03 08:17:13;;;;;;;11.70;9.88;;;17.00;99.90;;;;;;5064819;28;20202;-79
2022/05/03 08:19:40;;;;;;;13.88;10.45;;;17.20;99.90;;;;;;5070465;28;20275;-78
2022/05/03 08:22:07;;;;;;;12.85;10.23;;;17.20;99.90;;;;;;5072795;28;20199;-77
2022/05/03 08:24:34;;;;;;;12.05;10.50;;;17.40;99.90;;;;;;5072577;28;20210;-78
2022/05/03 08:27:03;;;;;;;12.32;10.35;;;17.50;99.90;;;;;;5072869;28;20221;-81
2022/05/03 08:29:31;;;;;;;12.18;10.93;;;17.40;99.90;;;;;;5068012;28;20213;-78
2022/05/03 08:31:59;;;;;;;10.95;9.88;;;17.80;99.90;;;;;;5061939;28;20203;-79
2022/05/03 08:34:26;;;;;;;13.85;10.07;;;18.30;99.90;;;;;;5073178;28;20271;-75
2022/05/03 08:42:23;;;;;;;12.30;10.98;;;18.90;99.90;;;;;;5064016;28;20214;-77
2022/05/03 08:44:50;;;;;;;10.82;9.82;;;18.70;99.90;;;;;;5071715;28;20663;-75
2022/05/03 08:47:20;;;;;;;15.00;10.68;;;18.70;99.90;;;;;;5071931;28;20259;-77
2022/05/03 08:49:54;;;;;;;12.63;10.73;;;18.90;99.90;;;;;;5069408;28;20678;-78
2022/05/03 08:52:23;;;;;;;13.82;10.75;;;18.80;99.90;;;;;;5061040;28;20594;-78
2022/05/03 08:54:50;;;;;;;12.43;9.52;;;18.70;99.90;;;;;;5062992;28;20652;-77
2022/05/03 08:57:19;;;;;;;12.57;9.75;;;18.30;99.90;;;;;;5071087;28;20206;-75
2022/05/03 08:59:49;;;;;;;12.05;10.35;;;18.20;99.90;;;;;;5072249;28;20217;-76
2022/05/03 09:02:16;;;;;;;11.38;10.18;;;18.10;99.90;;;;;;5071749;28;20644;-77
2022/05/03 09:04:43;;;;;;;14.70;10.80;;;18.00;99.90;;;;;;5069876;28;20256;-76
2022/05/03 09:07:19;;;;;;;12.27;10.82;;;18.00;99.90;;;;;;5064591;28;20584;-79
2022/05/03 09:09:47;;;;;;;11.48;9.00;;;18.20;99.90;;;;;;5066818;28;20285;-82
2022/05/03 09:12:25;;;;;;;9.70;8.80;;;18.20;99.90;;;;;;5067993;28;20260;-79
2022/05/03 09:14:56;;;;;;;12.48;10.13;;;18.40;99.90;;;;;;5066929;28;20660;-78
2022/05/03 09:17:38;;;;;;;11.63;10.27;;;18.80;99.90;;;;;;5071960;28;20205;-80
2022/05/03 09:25:50;;;;;;;11.13;10.02;;;18.30;99.90;;;;;;5069426;28;20329;-76
2022/05/03 09:28:21;;;;;;;11.63;10.27;;;18.30;99.90;;;;;;5068811;28;20215;-79
2022/05/03 09:30:51;;;;;;;12.70;11.35;;;18.60;99.90;;;;;;5065389;28;20203;-83
2022/05/03 09:33:20;;;;;;;9.85;8.85;;;19.20;99.90;;;;;;5069393;28;20827;-75
2022/05/03 09:35:48;;;;;;;10.60;9.00;;;19.30;99.90;;;;;;5067193;28;20677;-79
2022/05/03 09:38:15;;;;;;;9.90;8.90;;;19.20;99.90;;;;;;5066986;28;20218;-78
2022/05/03 09:40:44;;;;;;;11.60;10.40;;;19.50;99.90;;;;;;5069415;28;20255;-80
2022/05/03 09:43:11;;;;;;;11.38;10.27;;;19.50;99.90;;;;;;5070055;28;20210;-78
2022/05/03 09:45:39;;;;;;;11.00;9.90;;;20.00;99.90;;;;;;5071814;28;20291;-79
2022/05/03 09:48:08;;;;;;;10.07;8.50;;;20.40;99.90;;;;;;5066634;28;20264;-79
2022/05/03 09:50:40;;;;;;;8.82;8.13;;;21.10;99.90;;;;;;5066738;28;20214;-74
2022/05/03 09:53:13;;;;;;;9.93;8.93;;;21.90;99.90;;;;;;5069989;28;20259;-75
2022/05/03 09:55:42;;;;;;;10.45;7.97;;;22.60;99.90;;;;;;5071620;28;20252;-76
2022/05/03 09:58:10;;;;;;;8.48;7.68;;;23.30;99.90;;;;;;5071371;28;20210;-77
2022/05/03 10:00:39;;;;;;;9.20;8.02;;;23.90;99.90;;;;;;5071124;28;20206;-78
2022/05/03 10:03:10;;;;;;;9.30;8.00;;;24.30;99.90;;;;;;5069928;28;20739;-77
2022/05/03 10:05:38;;;;;;;11.27;8.07;;;24.90;99.90;;;;;;5070483;28;20228;-74
2022/05/03 10:08:06;;;;;;;8.32;7.53;;;23.00;99.90;;;;;;5070827;28;20210;-77
2022/05/03 10:10:33;;;;;;;9.63;8.70;;;22.40;99.90;;;;;;5071186;28;20261;-77
2022/05/03 10:13:01;;;;;;;8.50;7.55;;;21.50;99.90;;;;;;5069953;28;20638;-77
2022/05/03 10:21:12;;;;;;;8.80;7.93;;;19.50;99.90;;;;;;5065693;28;20201;-76
2022/05/03 10:23:39;;;;;;;11.82;7.95;;;19.50;99.90;;;;;;5060585;28;20674;-75
2022/05/03 10:26:09;;;;;;;8.90;8.00;;;19.50;99.90;;;;;;5066805;28;20242;-74
2022/05/03 10:29:08;;;;;;;10.18;8.80;;;19.40;99.90;;;;;;5058207;28;20215;-76
2022/05/03 10:31:55;;;;;;;8.82;8.02;;;19.10;99.90;;;;;;5069634;28;20670;-76
2022/05/03 10:34:43;;;;;;;9.45;7.70;;;19.20;99.90;;;;;;5071445;28;20260;-74
2022/05/03 10:37:11;;;;;;;10.52;7.55;;;19.40;99.90;;;;;;5070650;28;20641;-75
2022/05/03 10:39:47;;;;;;;13.43;8.75;;;19.80;99.90;;;;;;5071112;28;20693;-76
2022/05/03 10:42:15;;;;;;;10.90;7.53;;;20.30;99.90;;;;;;5070688;28;20221;-75
2022/05/03 10:44:56;;;;;;;8.95;8.05;;;20.70;99.90;;;;;;5071400;28;20211;-75
2022/05/03 10:47:42;;;;;;;7.80;7.10;;;20.60;99.90;;;;;;5071202;28;20234;-74
2022/05/03 10:50:26;;;;;;;12.07;7.65;;;20.40;99.90;;;;;;5070395;28;20213;-75
2022/05/03 10:53:24;;;;;;;9.98;6.68;;;20.80;99.90;;;;;;5071105;28;20654;-75
2022/05/03 10:56:23;;;;;;;8.48;7.57;;;21.00;99.90;;;;;;5071106;28;20384;-75
2022/05/03 10:59:13;;;;;;;9.63;7.22;;;21.00;99.90;;;;;;5062217;28;20209;-74
2022/05/03 11:02:09;;;;;;;8.48;7.53;;;21.00;99.90;;;;;;5060337;28;20568;-74
2022/05/03 11:04:56;;;;;;;9.38;7.32;;;21.00;99.90;;;;;;5051028;28;20211;-74
2022/05/03 11:07:25;;;;;;;9.25;6.55;;;20.90;99.90;;;;;;5052747;28;20245;-76
2022/05/03 11:09:52;;;;;;;8.25;6.72;;;20.30;99.90;;;;;;5065021;28;20624;-76
2022/05/03 11:12:19;;;;;;;7.38;6.72;;;20.40;99.90;;;;;;5065411;28;20205;-75
2022/05/03 11:14:48;;;;;;;9.63;6.60;;;20.40;99.90;;;;;;5088715;28;20209;-74
2022/05/03 11:17:15;;;;;;;12.85;7.57;;;20.10;99.90;;;;;;5071989;28;20210;-75
2022/05/03 11:19:55;;;;;;;10.85;7.18;;;20.10;99.90;;;;;;5069648;28;20217;-75
2022/05/03 11:22:26;;;;;;;7.28;6.68;;;20.30;99.90;;;;;;5065910;28;20287;-74
2022/05/03 11:24:55;;;;;;;7.85;6.45;;;20.50;99.90;;;;;;5075954;28;20259;-76
2022/05/03 11:27:23;;;;;;;8.38;7.57;;;20.80;99.90;;;;;;5070628;28;20273;-78
2022/05/03 11:29:55;;;;;;;8.00;6.03;;;20.70;99.90;;;;;;5070443;28;20611;-78
2022/05/03 11:32:29;;;;;;;7.72;6.63;;;20.90;99.90;;;;;;5064742;28;20308;-77
2022/05/03 11:35:05;;;;;;;7.63;6.75;;;21.10;99.90;;;;;;5068427;28;20257;-78
2022/05/03 11:37:34;;;;;;;9.55;6.55;;;21.20;99.90;;;;;;5068265;28;20218;-77
2022/05/03 11:40:09;;;;;;;9.10;6.63;;;21.20;99.90;;;;;;5064422;28;20343;-76
2022/05/03 11:42:41;;;;;;;9.20;6.80;;;20.90;99.90;;;;;;5068328;28;20202;-77
2022/05/03 11:45:10;;;;;;;6.90;5.90;;;20.60;99.90;;;;;;5061975;28;20199;-79
2022/05/03 11:47:39;;;;;;;9.57;6.13;;;20.50;99.90;;;;;;5066943;28;20666;-77
2022/05/03 11:50:07;;;;;;;6.55;5.82;;;20.40;99.90;;;;;;5063996;28;20207;-78
2022/05/03 11:58:08;;;;;;;11.63;6.85;;;20.20;99.90;;;;;;5057356;28;20697;-77
2022/05/03 12:00:49;;;;;;;7.07;6.47;;;20.40;99.90;;;;;;5068683;28;20249;-78
2022/05/03 12:03:17;;;;;;;6.47;5.88;;;20.70;99.90;;;;;;5065861;28;20206;-77
2022/05/03 12:06:02;;;;;;;7.55;6.90;;;20.60;99.90;;;;;;5067433;28;20199;-78
2022/05/03 12:08:31;;;;;;;7.38;6.68;;;20.60;99.90;;;;;;5068500;28;20233;-76
2022/05/03 12:10:58;;;;;;;10.13;6.13;;;20.70;99.90;;;;;;5059662;28;20241;-75
2022/05/03 12:13:30;;;;;;;7.47;6.22;;;21.00;99.90;;;;;;5067829;28;20248;-78
2022/05/03 12:16:11;;;;;;;10.98;7.10;;;21.20;99.90;;;;;;5067128;28;20585;-78
2022/05/03 12:18:40;;;;;;;6.72;6.15;;;21.20;99.90;;;;;;5066482;28;20210;-77
2022/05/03 12:21:11;;;;;;;6.68;5.97;;;21.30;99.90;;;;;;5066936;28;20207;-76
2022/05/03 12:23:42;;;;;;;6.55;5.93;;;21.90;99.90;;;;;;5069510;28;20199;-76
2022/05/03 12:26:21;;;;;;;11.60;6.80;;;22.10;99.90;;;;;;5068350;28;20218;-76
2022/05/03 12:28:50;;;;;;;8.35;5.90;;;22.00;99.90;;;;;;5072162;28;20665;-75
2022/05/03 12:31:18;;;;;;;7.20;6.28;;;22.10;99.90;;;;;;5068050;28;20212;-76
2022/05/03 12:33:50;;;;;;;9.20;6.18;;;22.10;99.90;;;;;;5070383;28;20198;-75
2022/05/03 12:36:31;;;;;;;7.53;6.30;;;22.10;99.90;;;;;;5072291;28;20226;-77
2022/05/03 12:39:13;;;;;;;6.65;5.82;;;21.90;99.90;;;;;;5072428;28;20210;-76
2022/05/03 12:41:40;;;;;;;10.10;6.50;;;22.00;99.90;;;;;;5071985;28;20210;-76
2022/05/03 12:44:11;;;;;;;6.20;5.60;;;22.10;99.90;;;;;;5072122;28;20620;-77
2022/05/03 12:46:38;;;;;;;7.30;6.47;;;21.70;99.90;;;;;;5072503;28;20226;-77
2022/05/03 12:49:09;;;;;;;8.10;7.15;;;21.80;99.90;;;;;;5068714;28;20202;-84
2022/05/03 12:51:37;;;;;;;6.85;6.28;;;21.90;99.90;;;;;;5066750;28;20202;-83
2022/05/03 12:54:07;;;;;;;7.47;5.75;;;21.60;99.90;;;;;;5072588;28;20343;-77
2022/05/03 12:59:21;;;;;;;6.90;6.20;;;22.10;99.90;;;;;;5069400;28;20216;-80
2022/05/03 13:01:49;;;;;;;8.07;7.32;;;22.20;99.90;;;;;;5071427;28;20665;-79
2022/05/03 13:04:16;;;;;;;6.72;6.13;;;22.20;99.90;;;;;;5066321;28;20913;-76
2022/05/03 13:06:44;;;;;;;7.72;5.65;;;21.40;99.90;;;;;;5069525;28;20322;-77
2022/05/03 13:09:13;;;;;;;6.88;6.25;;;21.40;99.90;;;;;;5070148;28;20259;-77
2022/05/03 13:11:40;;;;;;;6.10;5.40;;;21.60;99.90;;;;;;5071878;28;20202;-77
2022/05/03 13:14:08;;;;;;;8.07;7.28;;;21.60;99.90;;;;;;5071361;28;20699;-79
2022/05/03 13:16:35;;;;;;;11.05;6.50;;;21.30;99.90;;;;;;5071579;28;20217;-78
2022/05/03 13:19:03;;;;;;;7.65;6.95;;;21.30;99.90;;;;;;5072071;28;20256;-77
2022/05/03 13:21:30;;;;;;;6.55;5.90;;;21.40;99.90;;;;;;5065312;28;20202;-79
2022/05/03 13:23:59;;;;;;;7.90;5.35;;;21.60;99.90;;;;;;5071379;28;20255;-79
2022/05/03 13:26:28;;;;;;;8.95;5.78;;;21.70;99.90;;;;;;5072057;28;20230;-80
2022/05/03 13:28:55;;;;;;;7.53;5.70;;;21.60;99.90;;;;;;5072341;28;20202;-79
2022/05/03 13:31:22;;;;;;;6.47;4.97;;;21.70;99.90;;;;;;5067110;28;20206;-79
2022/05/03 13:33:49;;;;;;;10.05;6.43;;;21.70;99.90;;;;;;5071225;28;20569;-79